Main page
METAR-TAF:

METAR-TAF

Airports :

Hof–Plauen Airport

Hof, Germany

latitude: 50-19N, longitude: 011-53E, elevation: 567 m

Current weather observation

The report was made 22 minutes ago, at 10:20 UTC
Wind 11 kt from the West
Temperature 2°C
Humidity 87%
Pressure 1025 hPa
Visibility 10 km or more
Few clouds at a height of 1900 ft
Scattered clouds at a height of 3100 ft

METAR: EDQM 211020Z 26011KT 9999 FEW019 SCT031 02/M00 Q1025

Time: 11:42 (10:42 UTC)

Forecast

The report was made 2 hours and 42 minutes ago, at 08:00 UTC
Forecast valid from 21 at 09 UTC to 21 at 18 UTC
Wind 12 kt from the West
Visibility 10 km or more
Broken clouds at a height of 3000 ft
Temporary
from 21 at 09 UTC to 21 at 15 UTC
Wind 15 kt from the West with gusts up to 25 kt
Becoming
from 21 at 16 UTC to 21 at 18 UTC
Wind 7 kt from the West/Southwest

TAF: EDQM 210800Z 2109/2118 26012KT 9999 BKN030 TEMPO 2109/2115 26015G25KT BECMG 2116/2118 24007KT

Weather observations and forecasts of more than 4000 airports (METAR and TAF reports).

The available stations are represented by yellow and red dots on the map.

Hover mouse over dot to see the name of the station.

Then click to see weather observations and forecasts.

To change the map : click on the green buttons with a black cross to zoom in, on the green button with a dash to zoom out, or on the green arrows for adjacent maps.


METAR-TAF: